sensor_id;sensor_type;location;lat;lon;timestamp;P1;durP1;ratioP1;P2;durP2;ratioP2
30096;SDS011;16915;51.466;3.610;2024-01-25T00:00:14;43.20;;;5.47;;
30096;SDS011;16915;51.466;3.610;2024-01-25T00:02:40;32.03;;;4.45;;
30096;SDS011;16915;51.466;3.610;2024-01-25T00:05:05;31.65;;;4.43;;
30096;SDS011;16915;51.466;3.610;2024-01-25T00:07:31;37.60;;;5.35;;
30096;SDS011;16915;51.466;3.610;2024-01-25T00:09:57;35.78;;;4.60;;
30096;SDS011;16915;51.466;3.610;2024-01-25T00:12:22;30.95;;;4.53;;
30096;SDS011;16915;51.466;3.610;2024-01-25T00:14:48;31.15;;;5.53;;
30096;SDS011;16915;51.466;3.610;2024-01-25T00:17:14;31.75;;;4.43;;
30096;SDS011;16915;51.466;3.610;2024-01-25T00:19:39;33.05;;;4.80;;
30096;SDS011;16915;51.466;3.610;2024-01-25T00:22:06;34.67;;;3.95;;
30096;SDS011;16915;51.466;3.610;2024-01-25T00:24:32;37.38;;;4.40;;
30096;SDS011;16915;51.466;3.610;2024-01-25T00:26:58;40.67;;;4.45;;
30096;SDS011;16915;51.466;3.610;2024-01-25T00:29:23;39.67;;;4.53;;
30096;SDS011;16915;51.466;3.610;2024-01-25T00:31:49;36.03;;;4.80;;
30096;SDS011;16915;51.466;3.610;2024-01-25T00:34:15;35.63;;;4.60;;
30096;SDS011;16915;51.466;3.610;2024-01-25T00:36:41;25.55;;;4.35;;
30096;SDS011;16915;51.466;3.610;2024-01-25T00:39:07;27.40;;;4.28;;
30096;SDS011;16915;51.466;3.610;2024-01-25T00:41:33;36.75;;;4.90;;
30096;SDS011;16915;51.466;3.610;2024-01-25T00:43:59;34.55;;;4.32;;
30096;SDS011;16915;51.466;3.610;2024-01-25T00:46:25;33.42;;;4.60;;
30096;SDS011;16915;51.466;3.610;2024-01-25T00:48:51;34.05;;;4.20;;
30096;SDS011;16915;51.466;3.610;2024-01-25T00:51:20;40.88;;;4.82;;
30096;SDS011;16915;51.466;3.610;2024-01-25T00:53:47;35.75;;;4.65;;
30096;SDS011;16915;51.466;3.610;2024-01-25T00:56:13;38.45;;;4.97;;
30096;SDS011;16915;51.466;3.610;2024-01-25T00:58:38;32.92;;;4.13;;
30096;SDS011;16915;51.466;3.610;2024-01-25T01:01:04;33.22;;;3.67;;
30096;SDS011;16915;51.466;3.610;2024-01-25T01:03:30;41.17;;;4.15;;
30096;SDS011;16915;51.466;3.610;2024-01-25T01:05:56;40.90;;;4.30;;
30096;SDS011;16915;51.466;3.610;2024-01-25T01:08:23;34.83;;;4.53;;
30096;SDS011;16915;51.466;3.610;2024-01-25T01:10:48;26.92;;;3.83;;
30096;SDS011;16915;51.466;3.610;2024-01-25T01:13:14;36.47;;;4.47;;
30096;SDS011;16915;51.466;3.610;2024-01-25T01:15:39;41.03;;;5.00;;
30096;SDS011;16915;51.466;3.610;2024-01-25T01:18:05;33.70;;;3.72;;
30096;SDS011;16915;51.466;3.610;2024-01-25T01:20:30;34.95;;;4.28;;
30096;SDS011;16915;51.466;3.610;2024-01-25T01:22:56;29.80;;;4.35;;
30096;SDS011;16915;51.466;3.610;2024-01-25T01:25:22;28.65;;;3.35;;
30096;SDS011;16915;51.466;3.610;2024-01-25T01:27:47;26.85;;;4.93;;
30096;SDS011;16915;51.466;3.610;2024-01-25T01:30:13;28.63;;;3.95;;
30096;SDS011;16915;51.466;3.610;2024-01-25T01:32:38;29.45;;;4.35;;
30096;SDS011;16915;51.466;3.610;2024-01-25T01:35:04;36.53;;;4.10;;
30096;SDS011;16915;51.466;3.610;2024-01-25T01:37:30;24.98;;;3.92;;
30096;SDS011;16915;51.466;3.610;2024-01-25T01:39:55;26.58;;;4.18;;
30096;SDS011;16915;51.466;3.610;2024-01-25T01:42:23;30.77;;;4.20;;
30096;SDS011;16915;51.466;3.610;2024-01-25T01:44:49;27.77;;;4.07;;
30096;SDS011;16915;51.466;3.610;2024-01-25T01:47:17;41.67;;;4.07;;
30096;SDS011;16915;51.466;3.610;2024-01-25T01:49:42;29.13;;;3.42;;
30096;SDS011;16915;51.466;3.610;2024-01-25T01:52:08;22.52;;;4.05;;
30096;SDS011;16915;51.466;3.610;2024-01-25T01:54:34;28.00;;;3.08;;
30096;SDS011;16915;51.466;3.610;2024-01-25T01:57:01;21.83;;;3.28;;
30096;SDS011;16915;51.466;3.610;2024-01-25T01:59:27;33.55;;;4.90;;
30096;SDS011;16915;51.466;3.610;2024-01-25T02:01:54;30.45;;;4.43;;
30096;SDS011;16915;51.466;3.610;2024-01-25T02:04:19;33.33;;;3.95;;
30096;SDS011;16915;51.466;3.610;2024-01-25T02:06:45;28.23;;;4.70;;
30096;SDS011;16915;51.466;3.610;2024-01-25T02:09:11;29.95;;;3.63;;
30096;SDS011;16915;51.466;3.610;2024-01-25T02:11:37;39.75;;;4.10;;
30096;SDS011;16915;51.466;3.610;2024-01-25T02:14:02;25.60;;;4.10;;
30096;SDS011;16915;51.466;3.610;2024-01-25T02:16:28;28.50;;;3.90;;
30096;SDS011;16915;51.466;3.610;2024-01-25T02:18:54;29.55;;;4.18;;
30096;SDS011;16915;51.466;3.610;2024-01-25T02:21:22;31.98;;;4.35;;
30096;SDS011;16915;51.466;3.610;2024-01-25T02:23:47;28.52;;;4.05;;
30096;SDS011;16915;51.466;3.610;2024-01-25T02:26:13;28.42;;;3.88;;
30096;SDS011;16915;51.466;3.610;2024-01-25T02:28:38;26.52;;;4.60;;
30096;SDS011;16915;51.466;3.610;2024-01-25T02:31:04;27.42;;;3.95;;
30096;SDS011;16915;51.466;3.610;2024-01-25T02:33:30;31.10;;;4.82;;
30096;SDS011;16915;51.466;3.610;2024-01-25T02:35:55;33.85;;;4.00;;
30096;SDS011;16915;51.466;3.610;2024-01-25T02:38:21;16.80;;;3.10;;
30096;SDS011;16915;51.466;3.610;2024-01-25T02:40:46;27.27;;;4.43;;
30096;SDS011;16915;51.466;3.610;2024-01-25T02:43:12;28.95;;;4.22;;
30096;SDS011;16915;51.466;3.610;2024-01-25T02:45:37;19.25;;;2.90;;
30096;SDS011;16915;51.466;3.610;2024-01-25T02:48:03;35.63;;;4.10;;
30096;SDS011;16915;51.466;3.610;2024-01-25T02:50:29;18.90;;;3.92;;
30096;SDS011;16915;51.466;3.610;2024-01-25T02:52:55;29.10;;;4.15;;
30096;SDS011;16915;51.466;3.610;2024-01-25T02:55:20;22.58;;;3.47;;
30096;SDS011;16915;51.466;3.610;2024-01-25T02:57:46;25.08;;;3.40;;
30096;SDS011;16915;51.466;3.610;2024-01-25T03:00:12;25.52;;;4.28;;
30096;SDS011;16915;51.466;3.610;2024-01-25T03:02:38;32.67;;;4.40;;
30096;SDS011;16915;51.466;3.610;2024-01-25T03:05:03;34.50;;;3.35;;
30096;SDS011;16915;51.466;3.610;2024-01-25T03:07:29;19.15;;;2.78;;
30096;SDS011;16915;51.466;3.610;2024-01-25T03:09:55;26.98;;;3.65;;
30096;SDS011;16915;51.466;3.610;2024-01-25T03:12:20;20.60;;;2.88;;
30096;SDS011;16915;51.466;3.610;2024-01-25T03:14:46;15.43;;;3.05;;
30096;SDS011;16915;51.466;3.610;2024-01-25T03:17:13;30.67;;;4.47;;
30096;SDS011;16915;51.466;3.610;2024-01-25T03:19:38;22.05;;;3.25;;
30096;SDS011;16915;51.466;3.610;2024-01-25T03:22:04;30.55;;;3.85;;
30096;SDS011;16915;51.466;3.610;2024-01-25T03:24:29;29.70;;;3.95;;
30096;SDS011;16915;51.466;3.610;2024-01-25T03:26:55;23.00;;;2.78;;
30096;SDS011;16915;51.466;3.610;2024-01-25T03:29:20;22.35;;;3.90;;
30096;SDS011;16915;51.466;3.610;2024-01-25T03:31:46;23.80;;;4.22;;
30096;SDS011;16915;51.466;3.610;2024-01-25T03:34:12;25.73;;;2.90;;
30096;SDS011;16915;51.466;3.610;2024-01-25T03:36:37;29.77;;;3.80;;
30096;SDS011;16915;51.466;3.610;2024-01-25T03:39:04;22.60;;;3.78;;
30096;SDS011;16915;51.466;3.610;2024-01-25T03:41:30;24.73;;;3.30;;
30096;SDS011;16915;51.466;3.610;2024-01-25T03:43:56;27.88;;;4.10;;
30096;SDS011;16915;51.466;3.610;2024-01-25T03:46:21;23.85;;;4.40;;
30096;SDS011;16915;51.466;3.610;2024-01-25T03:48:47;22.33;;;3.75;;
30096;SDS011;16915;51.466;3.610;2024-01-25T03:51:12;21.35;;;3.88;;
30096;SDS011;16915;51.466;3.610;2024-01-25T03:53:38;27.70;;;4.15;;
30096;SDS011;16915;51.466;3.610;2024-01-25T03:56:09;34.38;;;4.55;;
30096;SDS011;16915;51.466;3.610;2024-01-25T03:58:38;31.42;;;4.07;;
30096;SDS011;16915;51.466;3.610;2024-01-25T04:01:04;26.48;;;4.18;;
30096;SDS011;16915;51.466;3.610;2024-01-25T04:03:30;24.52;;;3.92;;
30096;SDS011;16915;51.466;3.610;2024-01-25T04:05:56;29.30;;;3.63;;
30096;SDS011;16915;51.466;3.610;2024-01-25T04:08:21;26.70;;;4.18;;
30096;SDS011;16915;51.466;3.610;2024-01-25T04:10:47;29.30;;;3.75;;
30096;SDS011;16915;51.466;3.610;2024-01-25T04:13:12;34.05;;;4.40;;
30096;SDS011;16915;51.466;3.610;2024-01-25T04:15:38;25.45;;;3.60;;
30096;SDS011;16915;51.466;3.610;2024-01-25T04:18:03;26.30;;;3.67;;
30096;SDS011;16915;51.466;3.610;2024-01-25T04:20:29;34.95;;;4.53;;
30096;SDS011;16915;51.466;3.610;2024-01-25T04:22:56;22.20;;;3.88;;
30096;SDS011;16915;51.466;3.610;2024-01-25T04:25:22;19.73;;;3.13;;
30096;SDS011;16915;51.466;3.610;2024-01-25T04:27:47;26.08;;;4.18;;
30096;SDS011;16915;51.466;3.610;2024-01-25T04:30:13;26.02;;;4.15;;
30096;SDS011;16915;51.466;3.610;2024-01-25T04:32:38;19.42;;;3.78;;
30096;SDS011;16915;51.466;3.610;2024-01-25T04:35:05;38.50;;;4.97;;
30096;SDS011;16915;51.466;3.610;2024-01-25T04:37:31;27.15;;;5.30;;
30096;SDS011;16915;51.466;3.610;2024-01-25T04:39:56;30.92;;;4.40;;
30096;SDS011;16915;51.466;3.610;2024-01-25T04:42:22;30.48;;;3.40;;
30096;SDS011;16915;51.466;3.610;2024-01-25T04:44:47;12.10;;;3.35;;
30096;SDS011;16915;51.466;3.610;2024-01-25T04:47:13;17.80;;;3.90;;
30096;SDS011;16915;51.466;3.610;2024-01-25T04:49:39;31.67;;;3.92;;
30096;SDS011;16915;51.466;3.610;2024-01-25T04:52:05;30.95;;;3.50;;
30096;SDS011;16915;51.466;3.610;2024-01-25T04:54:31;18.48;;;3.40;;
30096;SDS011;16915;51.466;3.610;2024-01-25T04:56:57;34.90;;;4.30;;
30096;SDS011;16915;51.466;3.610;2024-01-25T04:59:23;23.48;;;3.97;;
30096;SDS011;16915;51.466;3.610;2024-01-25T05:01:48;25.55;;;3.47;;
30096;SDS011;16915;51.466;3.610;2024-01-25T05:04:15;15.95;;;3.53;;
30096;SDS011;16915;51.466;3.610;2024-01-25T05:06:41;20.08;;;4.10;;
30096;SDS011;16915;51.466;3.610;2024-01-25T05:09:06;22.75;;;2.83;;
30096;SDS011;16915;51.466;3.610;2024-01-25T05:11:34;27.77;;;3.80;;
30096;SDS011;16915;51.466;3.610;2024-01-25T05:14:03;20.55;;;3.80;;
30096;SDS011;16915;51.466;3.610;2024-01-25T05:16:29;19.20;;;3.15;;
30096;SDS011;16915;51.466;3.610;2024-01-25T05:18:54;14.02;;;3.25;;
30096;SDS011;16915;51.466;3.610;2024-01-25T05:21:20;21.02;;;3.47;;
30096;SDS011;16915;51.466;3.610;2024-01-25T05:23:45;23.42;;;3.40;;
30096;SDS011;16915;51.466;3.610;2024-01-25T05:26:11;24.33;;;4.30;;
30096;SDS011;16915;51.466;3.610;2024-01-25T05:28:37;22.90;;;3.80;;
30096;SDS011;16915;51.466;3.610;2024-01-25T05:31:03;27.73;;;5.18;;
30096;SDS011;16915;51.466;3.610;2024-01-25T05:33:28;24.70;;;3.45;;
30096;SDS011;16915;51.466;3.610;2024-01-25T05:35:54;23.05;;;3.38;;
30096;SDS011;16915;51.466;3.610;2024-01-25T05:38:20;20.25;;;3.47;;
30096;SDS011;16915;51.466;3.610;2024-01-25T05:40:45;30.40;;;3.90;;
30096;SDS011;16915;51.466;3.610;2024-01-25T05:43:11;19.25;;;3.55;;
30096;SDS011;16915;51.466;3.610;2024-01-25T05:45:36;19.65;;;3.03;;
30096;SDS011;16915;51.466;3.610;2024-01-25T05:48:02;17.25;;;3.17;;
30096;SDS011;16915;51.466;3.610;2024-01-25T05:50:28;29.15;;;4.43;;
30096;SDS011;16915;51.466;3.610;2024-01-25T05:52:53;18.73;;;3.30;;
30096;SDS011;16915;51.466;3.610;2024-01-25T05:55:19;22.52;;;4.43;;
30096;SDS011;16915;51.466;3.610;2024-01-25T05:57:44;35.17;;;3.90;;
30096;SDS011;16915;51.466;3.610;2024-01-25T06:00:11;24.67;;;3.72;;
30096;SDS011;16915;51.466;3.610;2024-01-25T06:02:40;32.58;;;3.75;;
30096;SDS011;16915;51.466;3.610;2024-01-25T06:05:05;40.50;;;4.82;;
30096;SDS011;16915;51.466;3.610;2024-01-25T06:07:31;30.40;;;3.72;;
30096;SDS011;16915;51.466;3.610;2024-01-25T06:09:57;26.98;;;3.92;;
30096;SDS011;16915;51.466;3.610;2024-01-25T06:12:22;27.70;;;3.58;;
30096;SDS011;16915;51.466;3.610;2024-01-25T06:14:48;23.65;;;3.75;;
30096;SDS011;16915;51.466;3.610;2024-01-25T06:17:13;22.88;;;3.47;;
30096;SDS011;16915;51.466;3.610;2024-01-25T06:19:39;29.38;;;4.57;;
30096;SDS011;16915;51.466;3.610;2024-01-25T06:22:04;29.48;;;4.43;;
30096;SDS011;16915;51.466;3.610;2024-01-25T06:24:30;24.42;;;3.15;;
30096;SDS011;16915;51.466;3.610;2024-01-25T06:26:56;20.65;;;3.55;;
30096;SDS011;16915;51.466;3.610;2024-01-25T06:29:22;24.05;;;4.93;;
30096;SDS011;16915;51.466;3.610;2024-01-25T06:31:47;19.98;;;4.18;;
30096;SDS011;16915;51.466;3.610;2024-01-25T06:34:13;22.85;;;3.78;;
30096;SDS011;16915;51.466;3.610;2024-01-25T06:36:39;28.27;;;3.92;;
30096;SDS011;16915;51.466;3.610;2024-01-25T06:39:04;42.60;;;4.43;;
30096;SDS011;16915;51.466;3.610;2024-01-25T06:41:30;23.23;;;4.38;;
30096;SDS011;16915;51.466;3.610;2024-01-25T06:43:56;35.50;;;5.45;;
30096;SDS011;16915;51.466;3.610;2024-01-25T06:46:21;26.27;;;4.40;;
30096;SDS011;16915;51.466;3.610;2024-01-25T06:48:47;35.30;;;4.05;;
30096;SDS011;16915;51.466;3.610;2024-01-25T06:51:14;30.27;;;4.47;;
30096;SDS011;16915;51.466;3.610;2024-01-25T06:53:39;19.42;;;3.63;;
30096;SDS011;16915;51.466;3.610;2024-01-25T06:56:05;21.35;;;3.92;;
30096;SDS011;16915;51.466;3.610;2024-01-25T06:58:31;34.92;;;4.57;;
30096;SDS011;16915;51.466;3.610;2024-01-25T07:00:57;31.27;;;4.78;;
30096;SDS011;16915;51.466;3.610;2024-01-25T07:03:22;29.08;;;4.82;;
30096;SDS011;16915;51.466;3.610;2024-01-25T07:05:48;31.80;;;4.25;;
30096;SDS011;16915;51.466;3.610;2024-01-25T07:08:13;37.92;;;4.63;;
30096;SDS011;16915;51.466;3.610;2024-01-25T07:10:40;23.95;;;4.05;;
30096;SDS011;16915;51.466;3.610;2024-01-25T07:13:06;26.73;;;4.30;;
30096;SDS011;16915;51.466;3.610;2024-01-25T07:15:32;29.73;;;5.05;;
30096;SDS011;16915;51.466;3.610;2024-01-25T07:17:58;35.67;;;5.15;;
30096;SDS011;16915;51.466;3.610;2024-01-25T07:20:23;32.40;;;4.93;;
30096;SDS011;16915;51.466;3.610;2024-01-25T07:22:49;28.23;;;4.60;;
30096;SDS011;16915;51.466;3.610;2024-01-25T07:25:14;33.67;;;5.47;;
30096;SDS011;16915;51.466;3.610;2024-01-25T07:27:43;36.75;;;7.43;;
30096;SDS011;16915;51.466;3.610;2024-01-25T07:30:10;45.63;;;6.32;;
30096;SDS011;16915;51.466;3.610;2024-01-25T07:32:37;41.88;;;5.93;;
30096;SDS011;16915;51.466;3.610;2024-01-25T07:35:03;39.63;;;5.22;;
30096;SDS011;16915;51.466;3.610;2024-01-25T07:37:29;39.60;;;6.90;;
30096;SDS011;16915;51.466;3.610;2024-01-25T07:39:55;51.67;;;6.43;;
30096;SDS011;16915;51.466;3.610;2024-01-25T07:42:20;51.83;;;6.80;;
30096;SDS011;16915;51.466;3.610;2024-01-25T07:44:46;49.65;;;7.35;;
30096;SDS011;16915;51.466;3.610;2024-01-25T07:47:11;36.95;;;6.18;;
30096;SDS011;16915;51.466;3.610;2024-01-25T07:49:39;56.25;;;7.88;;
30096;SDS011;16915;51.466;3.610;2024-01-25T07:52:05;42.83;;;6.80;;
30096;SDS011;16915;51.466;3.610;2024-01-25T07:54:31;40.65;;;7.18;;
30096;SDS011;16915;51.466;3.610;2024-01-25T07:56:57;40.33;;;6.57;;
30096;SDS011;16915;51.466;3.610;2024-01-25T07:59:22;54.20;;;8.30;;
30096;SDS011;16915;51.466;3.610;2024-01-25T08:01:48;43.88;;;6.72;;
30096;SDS011;16915;51.466;3.610;2024-01-25T08:04:13;45.83;;;7.05;;
30096;SDS011;16915;51.466;3.610;2024-01-25T08:06:39;36.22;;;7.55;;
30096;SDS011;16915;51.466;3.610;2024-01-25T08:09:04;55.92;;;8.02;;
30096;SDS011;16915;51.466;3.610;2024-01-25T08:11:30;44.20;;;7.72;;
30096;SDS011;16915;51.466;3.610;2024-01-25T08:13:56;43.85;;;7.40;;
30096;SDS011;16915;51.466;3.610;2024-01-25T08:16:22;34.60;;;7.05;;
30096;SDS011;16915;51.466;3.610;2024-01-25T08:18:48;31.50;;;7.72;;
30096;SDS011;16915;51.466;3.610;2024-01-25T08:21:13;39.97;;;6.85;;
30096;SDS011;16915;51.466;3.610;2024-01-25T08:23:39;44.38;;;8.25;;
30096;SDS011;16915;51.466;3.610;2024-01-25T08:26:05;47.38;;;8.55;;
30096;SDS011;16915;51.466;3.610;2024-01-25T08:28:34;45.67;;;8.30;;
30096;SDS011;16915;51.466;3.610;2024-01-25T08:31:01;46.67;;;8.02;;
30096;SDS011;16915;51.466;3.610;2024-01-25T08:33:27;34.33;;;7.05;;
30096;SDS011;16915;51.466;3.610;2024-01-25T08:35:52;44.83;;;8.25;;
30096;SDS011;16915;51.466;3.610;2024-01-25T08:38:18;45.40;;;8.48;;
30096;SDS011;16915;51.466;3.610;2024-01-25T08:40:43;54.22;;;8.75;;
30096;SDS011;16915;51.466;3.610;2024-01-25T08:43:09;35.00;;;8.10;;
30096;SDS011;16915;51.466;3.610;2024-01-25T08:45:34;49.42;;;7.63;;
30096;SDS011;16915;51.466;3.610;2024-01-25T08:48:02;55.67;;;8.52;;
30096;SDS011;16915;51.466;3.610;2024-01-25T08:50:27;35.72;;;8.63;;
30096;SDS011;16915;51.466;3.610;2024-01-25T08:52:53;43.90;;;8.23;;
30096;SDS011;16915;51.466;3.610;2024-01-25T08:55:19;45.03;;;8.00;;
30096;SDS011;16915;51.466;3.610;2024-01-25T08:57:44;40.65;;;7.97;;
30096;SDS011;16915;51.466;3.610;2024-01-25T09:00:10;40.83;;;8.25;;
30096;SDS011;16915;51.466;3.610;2024-01-25T09:02:36;40.40;;;7.97;;
30096;SDS011;16915;51.466;3.610;2024-01-25T09:05:03;40.03;;;9.00;;
30096;SDS011;16915;51.466;3.610;2024-01-25T09:07:30;46.63;;;9.00;;
30096;SDS011;16915;51.466;3.610;2024-01-25T09:09:56;62.25;;;10.68;;
30096;SDS011;16915;51.466;3.610;2024-01-25T09:12:21;53.00;;;9.05;;
30096;SDS011;16915;51.466;3.610;2024-01-25T09:14:47;50.55;;;9.88;;
30096;SDS011;16915;51.466;3.610;2024-01-25T09:17:12;58.88;;;9.82;;
30096;SDS011;16915;51.466;3.610;2024-01-25T09:19:39;61.83;;;10.10;;
30096;SDS011;16915;51.466;3.610;2024-01-25T09:22:06;51.78;;;10.30;;
30096;SDS011;16915;51.466;3.610;2024-01-25T09:24:32;57.83;;;10.27;;
30096;SDS011;16915;51.466;3.610;2024-01-25T09:27:01;67.03;;;11.13;;
30096;SDS011;16915;51.466;3.610;2024-01-25T09:29:27;53.25;;;10.88;;
30096;SDS011;16915;51.466;3.610;2024-01-25T09:31:53;64.03;;;12.65;;
30096;SDS011;16915;51.466;3.610;2024-01-25T09:34:19;54.58;;;11.38;;
30096;SDS011;16915;51.466;3.610;2024-01-25T09:36:45;38.25;;;10.43;;
30096;SDS011;16915;51.466;3.610;2024-01-25T09:39:10;58.72;;;11.57;;
30096;SDS011;16915;51.466;3.610;2024-01-25T09:41:36;50.40;;;12.13;;
30096;SDS011;16915;51.466;3.610;2024-01-25T09:44:01;47.38;;;12.82;;
30096;SDS011;16915;51.466;3.610;2024-01-25T09:46:28;46.47;;;12.85;;
30096;SDS011;16915;51.466;3.610;2024-01-25T09:48:55;47.60;;;13.85;;
30096;SDS011;16915;51.466;3.610;2024-01-25T09:51:21;52.53;;;13.98;;
30096;SDS011;16915;51.466;3.610;2024-01-25T09:53:48;49.75;;;13.57;;
30096;SDS011;16915;51.466;3.610;2024-01-25T09:56:15;43.33;;;12.95;;
30096;SDS011;16915;51.466;3.610;2024-01-25T09:58:44;38.97;;;13.05;;
30096;SDS011;16915;51.466;3.610;2024-01-25T10:01:13;52.88;;;12.95;;
30096;SDS011;16915;51.466;3.610;2024-01-25T10:03:47;41.10;;;12.77;;
30096;SDS011;16915;51.466;3.610;2024-01-25T10:06:13;36.88;;;12.95;;
30096;SDS011;16915;51.466;3.610;2024-01-25T10:08:40;38.78;;;12.77;;
30096;SDS011;16915;51.466;3.610;2024-01-25T10:11:06;44.55;;;13.50;;
30096;SDS011;16915;51.466;3.610;2024-01-25T10:13:42;31.58;;;12.55;;
30096;SDS011;16915;51.466;3.610;2024-01-25T10:16:13;31.08;;;11.35;;
30096;SDS011;16915;51.466;3.610;2024-01-25T10:18:40;40.20;;;12.60;;
30096;SDS011;16915;51.466;3.610;2024-01-25T10:21:08;37.63;;;11.75;;
30096;SDS011;16915;51.466;3.610;2024-01-25T10:23:34;30.15;;;11.75;;
30096;SDS011;16915;51.466;3.610;2024-01-25T10:26:00;36.80;;;12.43;;
30096;SDS011;16915;51.466;3.610;2024-01-25T10:28:27;33.88;;;12.10;;
30096;SDS011;16915;51.466;3.610;2024-01-25T10:30:55;35.05;;;11.88;;
30096;SDS011;16915;51.466;3.610;2024-01-25T10:33:22;33.95;;;12.40;;
30096;SDS011;16915;51.466;3.610;2024-01-25T10:35:51;37.53;;;12.90;;
30096;SDS011;16915;51.466;3.610;2024-01-25T10:38:26;40.58;;;13.25;;
30096;SDS011;16915;51.466;3.610;2024-01-25T10:40:55;38.92;;;12.77;;
30096;SDS011;16915;51.466;3.610;2024-01-25T10:43:22;42.47;;;12.25;;
30096;SDS011;16915;51.466;3.610;2024-01-25T10:45:48;42.42;;;11.93;;
30096;SDS011;16915;51.466;3.610;2024-01-25T10:48:18;42.03;;;12.50;;
30096;SDS011;16915;51.466;3.610;2024-01-25T10:50:44;41.78;;;12.90;;
30096;SDS011;16915;51.466;3.610;2024-01-25T10:53:11;47.65;;;11.60;;
30096;SDS011;16915;51.466;3.610;2024-01-25T10:55:37;46.60;;;13.20;;
30096;SDS011;16915;51.466;3.610;2024-01-25T10:58:03;59.25;;;14.05;;
30096;SDS011;16915;51.466;3.610;2024-01-25T11:00:31;36.85;;;12.93;;
30096;SDS011;16915;51.466;3.610;2024-01-25T11:02:58;46.85;;;14.95;;
30096;SDS011;16915;51.466;3.610;2024-01-25T11:05:25;43.72;;;13.55;;
30096;SDS011;16915;51.466;3.610;2024-01-25T11:07:51;34.10;;;13.18;;
30096;SDS011;16915;51.466;3.610;2024-01-25T11:10:18;45.58;;;14.20;;
30096;SDS011;16915;51.466;3.610;2024-01-25T11:15:30;48.20;;;13.32;;
30096;SDS011;16915;51.466;3.610;2024-01-25T11:17:57;46.65;;;14.25;;
30096;SDS011;16915;51.466;3.610;2024-01-25T11:20:24;48.72;;;14.60;;
30096;SDS011;16915;51.466;3.610;2024-01-25T11:22:58;45.10;;;13.90;;
30096;SDS011;16915;51.466;3.610;2024-01-25T11:25:29;44.03;;;13.32;;
30096;SDS011;16915;51.466;3.610;2024-01-25T11:27:56;42.70;;;12.82;;
30096;SDS011;16915;51.466;3.610;2024-01-25T11:30:22;56.70;;;14.65;;
30096;SDS011;16915;51.466;3.610;2024-01-25T11:32:48;47.55;;;13.68;;
30096;SDS011;16915;51.466;3.610;2024-01-25T11:35:14;37.60;;;13.02;;
30096;SDS011;16915;51.466;3.610;2024-01-25T11:37:47;41.63;;;13.20;;
30096;SDS011;16915;51.466;3.610;2024-01-25T11:40:14;40.45;;;13.38;;
30096;SDS011;16915;51.466;3.610;2024-01-25T11:42:45;43.00;;;12.90;;
30096;SDS011;16915;51.466;3.610;2024-01-25T11:45:13;42.70;;;13.95;;
30096;SDS011;16915;51.466;3.610;2024-01-25T11:47:39;46.17;;;12.05;;
30096;SDS011;16915;51.466;3.610;2024-01-25T11:50:06;46.33;;;12.80;;
30096;SDS011;16915;51.466;3.610;2024-01-25T11:52:33;40.63;;;12.40;;
30096;SDS011;16915;51.466;3.610;2024-01-25T11:55:08;45.50;;;14.05;;
30096;SDS011;16915;51.466;3.610;2024-01-25T11:57:35;43.08;;;12.55;;
30096;SDS011;16915;51.466;3.610;2024-01-25T12:00:07;43.70;;;14.50;;
30096;SDS011;16915;51.466;3.610;2024-01-25T12:02:34;47.80;;;14.00;;
30096;SDS011;16915;51.466;3.610;2024-01-25T12:05:02;43.72;;;12.63;;
30096;SDS011;16915;51.466;3.610;2024-01-25T12:07:29;42.55;;;13.35;;
30096;SDS011;16915;51.466;3.610;2024-01-25T12:12:26;48.35;;;12.80;;
30096;SDS011;16915;51.466;3.610;2024-01-25T12:14:56;57.05;;;13.55;;
30096;SDS011;16915;51.466;3.610;2024-01-25T12:17:23;45.57;;;14.00;;
30096;SDS011;16915;51.466;3.610;2024-01-25T12:19:48;38.58;;;11.98;;
30096;SDS011;16915;51.466;3.610;2024-01-25T12:22:19;49.67;;;12.75;;
30096;SDS011;16915;51.466;3.610;2024-01-25T12:24:46;44.08;;;12.20;;
30096;SDS011;16915;51.466;3.610;2024-01-25T12:27:13;35.72;;;11.73;;
30096;SDS011;16915;51.466;3.610;2024-01-25T12:29:40;27.98;;;10.55;;
30096;SDS011;16915;51.466;3.610;2024-01-25T12:32:06;39.15;;;11.15;;
30096;SDS011;16915;51.466;3.610;2024-01-25T12:34:31;39.95;;;12.15;;
30096;SDS011;16915;51.466;3.610;2024-01-25T12:36:57;38.65;;;10.98;;
30096;SDS011;16915;51.466;3.610;2024-01-25T12:39:24;30.60;;;10.80;;
30096;SDS011;16915;51.466;3.610;2024-01-25T12:41:49;31.90;;;11.05;;
30096;SDS011;16915;51.466;3.610;2024-01-25T12:44:15;24.58;;;10.68;;
30096;SDS011;16915;51.466;3.610;2024-01-25T12:46:41;32.40;;;10.02;;
30096;SDS011;16915;51.466;3.610;2024-01-25T12:49:06;29.98;;;9.85;;
30096;SDS011;16915;51.466;3.610;2024-01-25T12:51:32;28.23;;;9.73;;
30096;SDS011;16915;51.466;3.610;2024-01-25T12:53:57;26.77;;;9.70;;
30096;SDS011;16915;51.466;3.610;2024-01-25T12:56:23;25.92;;;9.40;;
30096;SDS011;16915;51.466;3.610;2024-01-25T12:58:48;20.88;;;8.60;;
30096;SDS011;16915;51.466;3.610;2024-01-25T13:01:14;22.98;;;9.18;;
30096;SDS011;16915;51.466;3.610;2024-01-25T13:03:39;26.05;;;9.43;;
30096;SDS011;16915;51.466;3.610;2024-01-25T13:06:05;29.15;;;9.18;;
30096;SDS011;16915;51.466;3.610;2024-01-25T13:08:31;20.73;;;8.98;;
30096;SDS011;16915;51.466;3.610;2024-01-25T13:10:56;19.65;;;9.68;;
30096;SDS011;16915;51.466;3.610;2024-01-25T13:13:22;19.70;;;10.02;;
30096;SDS011;16915;51.466;3.610;2024-01-25T13:15:48;20.58;;;10.02;;
30096;SDS011;16915;51.466;3.610;2024-01-25T13:18:13;21.02;;;9.10;;
30096;SDS011;16915;51.466;3.610;2024-01-25T13:20:39;20.80;;;9.50;;
30096;SDS011;16915;51.466;3.610;2024-01-25T13:23:04;21.13;;;9.88;;
30096;SDS011;16915;51.466;3.610;2024-01-25T13:25:30;20.63;;;9.25;;
30096;SDS011;16915;51.466;3.610;2024-01-25T13:27:55;16.55;;;9.18;;
30096;SDS011;16915;51.466;3.610;2024-01-25T13:30:21;17.95;;;9.57;;
30096;SDS011;16915;51.466;3.610;2024-01-25T13:32:46;21.05;;;10.00;;
30096;SDS011;16915;51.466;3.610;2024-01-25T13:35:12;18.00;;;8.68;;
30096;SDS011;16915;51.466;3.610;2024-01-25T13:37:38;22.00;;;9.65;;
30096;SDS011;16915;51.466;3.610;2024-01-25T13:40:03;19.98;;;9.73;;
30096;SDS011;16915;51.466;3.610;2024-01-25T13:42:29;23.67;;;11.02;;
30096;SDS011;16915;51.466;3.610;2024-01-25T13:44:55;17.25;;;9.90;;
30096;SDS011;16915;51.466;3.610;2024-01-25T13:47:21;21.95;;;10.32;;
30096;SDS011;16915;51.466;3.610;2024-01-25T13:49:47;25.02;;;10.93;;
30096;SDS011;16915;51.466;3.610;2024-01-25T13:52:19;23.48;;;11.02;;
30096;SDS011;16915;51.466;3.610;2024-01-25T13:54:45;29.00;;;12.75;;
30096;SDS011;16915;51.466;3.610;2024-01-25T13:57:13;23.92;;;13.10;;
30096;SDS011;16915;51.466;3.610;2024-01-25T13:59:39;27.73;;;13.60;;
30096;SDS011;16915;51.466;3.610;2024-01-25T14:02:05;33.33;;;14.98;;
30096;SDS011;16915;51.466;3.610;2024-01-25T14:04:30;31.65;;;15.27;;
30096;SDS011;16915;51.466;3.610;2024-01-25T14:06:56;31.48;;;15.73;;
30096;SDS011;16915;51.466;3.610;2024-01-25T14:09:21;33.45;;;16.27;;
30096;SDS011;16915;51.466;3.610;2024-01-25T14:11:47;36.00;;;16.77;;
30096;SDS011;16915;51.466;3.610;2024-01-25T14:14:12;38.78;;;17.00;;
30096;SDS011;16915;51.466;3.610;2024-01-25T14:16:38;34.67;;;16.13;;
30096;SDS011;16915;51.466;3.610;2024-01-25T14:19:03;37.88;;;17.73;;
30096;SDS011;16915;51.466;3.610;2024-01-25T14:21:29;40.55;;;18.50;;
30096;SDS011;16915;51.466;3.610;2024-01-25T14:23:56;38.80;;;17.15;;
30096;SDS011;16915;51.466;3.610;2024-01-25T14:26:21;41.28;;;17.95;;
30096;SDS011;16915;51.466;3.610;2024-01-25T14:28:47;41.28;;;17.58;;